sensor_id;sensor_type;location;lat;lon;timestamp;P1;durP1;ratioP1;P2;durP2;ratioP2
6483;SDS011;3275;52.376;9.694;2023-11-19T08:11:10;14.97;;;2.87;;
6483;SDS011;3275;52.376;9.694;2023-11-19T08:13:37;13.27;;;4.20;;
6483;SDS011;3275;52.376;9.694;2023-11-19T08:16:04;13.33;;;3.00;;
6483;SDS011;3275;52.376;9.694;2023-11-19T08:18:31;14.53;;;2.67;;
6483;SDS011;3275;52.376;9.694;2023-11-19T08:20:58;10.23;;;2.73;;
6483;SDS011;3275;52.376;9.694;2023-11-19T08:23:25;11.90;;;3.40;;
6483;SDS011;3275;52.376;9.694;2023-11-19T08:25:53;10.20;;;2.80;;
6483;SDS011;3275;52.376;9.694;2023-11-19T08:28:21;18.10;;;2.53;;
6483;SDS011;3275;52.376;9.694;2023-11-19T08:30:48;13.93;;;3.00;;
6483;SDS011;3275;52.376;9.694;2023-11-19T08:33:15;17.33;;;3.10;;
6483;SDS011;3275;52.376;9.694;2023-11-19T08:35:42;14.50;;;2.77;;
6483;SDS011;3275;52.376;9.694;2023-11-19T08:38:08;23.60;;;2.90;;
6483;SDS011;3275;52.376;9.694;2023-11-19T08:40:35;27.10;;;3.60;;
6483;SDS011;3275;52.376;9.694;2023-11-19T08:43:02;6.90;;;2.37;;
6483;SDS011;3275;52.376;9.694;2023-11-19T08:45:30;18.07;;;4.07;;
6483;SDS011;3275;52.376;9.694;2023-11-19T08:47:57;13.80;;;2.73;;
6483;SDS011;3275;52.376;9.694;2023-11-19T08:50:23;21.53;;;2.50;;
6483;SDS011;3275;52.376;9.694;2023-11-19T08:52:50;21.43;;;4.17;;
6483;SDS011;3275;52.376;9.694;2023-11-19T08:55:17;15.37;;;3.53;;
6483;SDS011;3275;52.376;9.694;2023-11-19T08:57:43;16.17;;;2.67;;
6483;SDS011;3275;52.376;9.694;2023-11-19T09:00:11;16.73;;;3.13;;
6483;SDS011;3275;52.376;9.694;2023-11-19T09:02:40;10.20;;;3.17;;
6483;SDS011;3275;52.376;9.694;2023-11-19T09:05:08;14.10;;;4.03;;
6483;SDS011;3275;52.376;9.694;2023-11-19T09:07:34;14.63;;;3.40;;
6483;SDS011;3275;52.376;9.694;2023-11-19T09:10:01;15.90;;;2.87;;
6483;SDS011;3275;52.376;9.694;2023-11-19T09:12:30;13.43;;;3.20;;
6483;SDS011;3275;52.376;9.694;2023-11-19T09:14:57;10.67;;;2.73;;
6483;SDS011;3275;52.376;9.694;2023-11-19T09:17:23;16.93;;;3.07;;
6483;SDS011;3275;52.376;9.694;2023-11-19T09:19:51;19.53;;;3.30;;
6483;SDS011;3275;52.376;9.694;2023-11-19T09:22:18;16.63;;;3.67;;
6483;SDS011;3275;52.376;9.694;2023-11-19T09:24:45;13.00;;;2.90;;
6483;SDS011;3275;52.376;9.694;2023-11-19T09:27:13;16.47;;;3.63;;
6483;SDS011;3275;52.376;9.694;2023-11-19T09:29:40;15.90;;;3.27;;
6483;SDS011;3275;52.376;9.694;2023-11-19T09:32:08;17.20;;;2.83;;
6483;SDS011;3275;52.376;9.694;2023-11-19T09:34:34;13.83;;;2.40;;
6483;SDS011;3275;52.376;9.694;2023-11-19T09:37:02;10.80;;;3.40;;
6483;SDS011;3275;52.376;9.694;2023-11-19T09:39:29;14.43;;;2.87;;
6483;SDS011;3275;52.376;9.694;2023-11-19T09:41:56;16.00;;;3.43;;
6483;SDS011;3275;52.376;9.694;2023-11-19T09:44:22;14.87;;;2.90;;
6483;SDS011;3275;52.376;9.694;2023-11-19T09:46:50;18.03;;;3.30;;
6483;SDS011;3275;52.376;9.694;2023-11-19T09:49:17;15.10;;;2.83;;
6483;SDS011;3275;52.376;9.694;2023-11-19T09:51:48;17.20;;;4.10;;
6483;SDS011;3275;52.376;9.694;2023-11-19T09:54:16;16.40;;;3.77;;
6483;SDS011;3275;52.376;9.694;2023-11-19T09:56:42;15.37;;;2.83;;
6483;SDS011;3275;52.376;9.694;2023-11-19T09:59:10;23.93;;;4.47;;
6483;SDS011;3275;52.376;9.694;2023-11-19T10:01:37;23.77;;;3.90;;
6483;SDS011;3275;52.376;9.694;2023-11-19T10:04:04;14.00;;;2.80;;
6483;SDS011;3275;52.376;9.694;2023-11-19T10:06:32;15.67;;;3.30;;
6483;SDS011;3275;52.376;9.694;2023-11-19T10:08:59;15.43;;;3.00;;
6483;SDS011;3275;52.376;9.694;2023-11-19T10:11:27;20.23;;;2.90;;
6483;SDS011;3275;52.376;9.694;2023-11-19T10:13:54;11.90;;;3.00;;
6483;SDS011;3275;52.376;9.694;2023-11-19T10:16:22;13.30;;;2.93;;
6483;SDS011;3275;52.376;9.694;2023-11-19T10:18:55;14.53;;;2.93;;
6483;SDS011;3275;52.376;9.694;2023-11-19T10:21:22;22.93;;;3.20;;
6483;SDS011;3275;52.376;9.694;2023-11-19T10:23:49;13.67;;;2.90;;
6483;SDS011;3275;52.376;9.694;2023-11-19T10:26:17;17.03;;;3.50;;
6483;SDS011;3275;52.376;9.694;2023-11-19T10:28:46;18.63;;;2.63;;
6483;SDS011;3275;52.376;9.694;2023-11-19T10:31:14;21.60;;;4.63;;
6483;SDS011;3275;52.376;9.694;2023-11-19T10:33:41;14.87;;;2.67;;
6483;SDS011;3275;52.376;9.694;2023-11-19T10:36:10;11.50;;;2.40;;
6483;SDS011;3275;52.376;9.694;2023-11-19T10:38:38;16.47;;;2.33;;
6483;SDS011;3275;52.376;9.694;2023-11-19T10:41:05;27.53;;;4.30;;
6483;SDS011;3275;52.376;9.694;2023-11-19T15:36:19;26.40;;;3.97;;
6483;SDS011;3275;52.376;9.694;2023-11-19T15:38:46;14.43;;;3.67;;
6483;SDS011;3275;52.376;9.694;2023-11-19T15:41:13;13.33;;;3.03;;
6483;SDS011;3275;52.376;9.694;2023-11-19T15:43:40;21.13;;;4.30;;
6483;SDS011;3275;52.376;9.694;2023-11-19T15:46:07;15.13;;;3.00;;
6483;SDS011;3275;52.376;9.694;2023-11-19T15:48:34;26.53;;;4.20;;
6483;SDS011;3275;52.376;9.694;2023-11-19T15:51:01;12.57;;;3.40;;
6483;SDS011;3275;52.376;9.694;2023-11-19T15:53:29;23.70;;;4.03;;
6483;SDS011;3275;52.376;9.694;2023-11-19T15:55:56;24.13;;;3.73;;
6483;SDS011;3275;52.376;9.694;2023-11-19T15:58:23;14.70;;;4.00;;
6483;SDS011;3275;52.376;9.694;2023-11-19T16:00:50;21.23;;;4.60;;
6483;SDS011;3275;52.376;9.694;2023-11-19T16:03:17;6.80;;;3.50;;
6483;SDS011;3275;52.376;9.694;2023-11-19T16:05:44;19.07;;;3.70;;
6483;SDS011;3275;52.376;9.694;2023-11-19T16:08:11;18.80;;;3.20;;
6483;SDS011;3275;52.376;9.694;2023-11-19T16:10:39;23.60;;;4.90;;
6483;SDS011;3275;52.376;9.694;2023-11-19T16:13:08;18.30;;;4.50;;
6483;SDS011;3275;52.376;9.694;2023-11-19T16:15:35;17.03;;;4.90;;
6483;SDS011;3275;52.376;9.694;2023-11-19T16:18:02;20.10;;;3.90;;
6483;SDS011;3275;52.376;9.694;2023-11-19T16:20:29;13.50;;;3.40;;
6483;SDS011;3275;52.376;9.694;2023-11-19T16:25:43;18.00;;;3.73;;
6483;SDS011;3275;52.376;9.694;2023-11-19T16:28:10;16.23;;;4.20;;
6483;SDS011;3275;52.376;9.694;2023-11-19T16:30:37;18.17;;;4.00;;
6483;SDS011;3275;52.376;9.694;2023-11-19T16:33:04;19.53;;;3.30;;
6483;SDS011;3275;52.376;9.694;2023-11-19T16:35:32;16.83;;;3.67;;
6483;SDS011;3275;52.376;9.694;2023-11-19T16:37:59;13.70;;;3.00;;
6483;SDS011;3275;52.376;9.694;2023-11-19T16:40:26;20.20;;;3.90;;
6483;SDS011;3275;52.376;9.694;2023-11-19T16:42:54;21.67;;;4.77;;
6483;SDS011;3275;52.376;9.694;2023-11-19T16:45:21;14.27;;;3.03;;
6483;SDS011;3275;52.376;9.694;2023-11-19T16:47:48;27.33;;;4.60;;
6483;SDS011;3275;52.376;9.694;2023-11-19T16:50:15;24.63;;;3.90;;
6483;SDS011;3275;52.376;9.694;2023-11-19T16:52:44;14.17;;;3.40;;
6483;SDS011;3275;52.376;9.694;2023-11-19T16:55:10;12.50;;;3.20;;
6483;SDS011;3275;52.376;9.694;2023-11-19T16:57:38;11.10;;;3.50;;
6483;SDS011;3275;52.376;9.694;2023-11-19T17:00:07;9.50;;;3.40;;
6483;SDS011;3275;52.376;9.694;2023-11-19T17:02:36;14.20;;;4.00;;
6483;SDS011;3275;52.376;9.694;2023-11-19T17:05:04;16.07;;;3.57;;
6483;SDS011;3275;52.376;9.694;2023-11-19T17:07:32;10.50;;;2.60;;
6483;SDS011;3275;52.376;9.694;2023-11-19T17:09:59;14.17;;;5.17;;
6483;SDS011;3275;52.376;9.694;2023-11-19T17:12:27;25.53;;;4.23;;
6483;SDS011;3275;52.376;9.694;2023-11-19T17:14:54;24.73;;;4.23;;
6483;SDS011;3275;52.376;9.694;2023-11-19T17:17:30;16.87;;;3.17;;
6483;SDS011;3275;52.376;9.694;2023-11-19T17:19:59;8.73;;;3.33;;
6483;SDS011;3275;52.376;9.694;2023-11-19T17:22:29;12.30;;;3.33;;
6483;SDS011;3275;52.376;9.694;2023-11-19T17:24:59;9.87;;;2.77;;
6483;SDS011;3275;52.376;9.694;2023-11-19T17:27:26;14.23;;;3.80;;
6483;SDS011;3275;52.376;9.694;2023-11-19T17:29:53;22.20;;;3.40;;
6483;SDS011;3275;52.376;9.694;2023-11-19T17:32:20;13.07;;;3.23;;
6483;SDS011;3275;52.376;9.694;2023-11-19T17:34:49;29.43;;;3.03;;
6483;SDS011;3275;52.376;9.694;2023-11-19T17:37:16;18.83;;;3.60;;
6483;SDS011;3275;52.376;9.694;2023-11-19T17:39:44;16.83;;;3.10;;
6483;SDS011;3275;52.376;9.694;2023-11-19T17:42:11;11.03;;;3.23;;
6483;SDS011;3275;52.376;9.694;2023-11-19T17:44:38;10.27;;;2.90;;
6483;SDS011;3275;52.376;9.694;2023-11-19T17:47:06;15.67;;;4.23;;
6483;SDS011;3275;52.376;9.694;2023-11-19T17:49:33;21.03;;;3.77;;
6483;SDS011;3275;52.376;9.694;2023-11-19T17:52:01;11.20;;;3.47;;
6483;SDS011;3275;52.376;9.694;2023-11-19T17:54:28;17.87;;;4.90;;
6483;SDS011;3275;52.376;9.694;2023-11-19T17:56:55;9.83;;;3.87;;
6483;SDS011;3275;52.376;9.694;2023-11-19T17:59:22;21.63;;;3.87;;
6483;SDS011;3275;52.376;9.694;2023-11-19T18:01:49;5.07;;;3.13;;
6483;SDS011;3275;52.376;9.694;2023-11-19T18:04:21;18.83;;;4.50;;
6483;SDS011;3275;52.376;9.694;2023-11-19T18:06:48;13.40;;;3.43;;
6483;SDS011;3275;52.376;9.694;2023-11-19T18:09:16;13.67;;;3.70;;
6483;SDS011;3275;52.376;9.694;2023-11-19T18:11:43;16.07;;;4.00;;
6483;SDS011;3275;52.376;9.694;2023-11-19T18:14:10;18.27;;;3.10;;
6483;SDS011;3275;52.376;9.694;2023-11-19T18:16:37;4.80;;;2.20;;
6483;SDS011;3275;52.376;9.694;2023-11-19T18:19:05;16.90;;;2.83;;
6483;SDS011;3275;52.376;9.694;2023-11-19T18:21:31;15.97;;;3.20;;
6483;SDS011;3275;52.376;9.694;2023-11-19T18:23:58;13.40;;;3.43;;
6483;SDS011;3275;52.376;9.694;2023-11-19T18:26:27;15.93;;;3.20;;
6483;SDS011;3275;52.376;9.694;2023-11-19T18:28:53;10.00;;;3.17;;
6483;SDS011;3275;52.376;9.694;2023-11-19T18:31:20;10.70;;;3.03;;
6483;SDS011;3275;52.376;9.694;2023-11-19T18:33:47;24.50;;;3.70;;
6483;SDS011;3275;52.376;9.694;2023-11-19T18:36:13;11.13;;;3.57;;
6483;SDS011;3275;52.376;9.694;2023-11-19T18:38:42;9.07;;;3.93;;
6483;SDS011;3275;52.376;9.694;2023-11-19T18:41:09;14.03;;;3.23;;
6483;SDS011;3275;52.376;9.694;2023-11-19T18:43:39;12.00;;;5.27;;
6483;SDS011;3275;52.376;9.694;2023-11-19T18:46:06;12.05;;;4.40;;
6483;SDS011;3275;52.376;9.694;2023-11-19T18:48:33;14.53;;;3.87;;
6483;SDS011;3275;52.376;9.694;2023-11-19T18:51:00;14.80;;;3.77;;
6483;SDS011;3275;52.376;9.694;2023-11-19T18:53:27;8.93;;;3.30;;
6483;SDS011;3275;52.376;9.694;2023-11-19T18:55:54;17.40;;;5.43;;
6483;SDS011;3275;52.376;9.694;2023-11-19T18:58:21;17.37;;;4.50;;
6483;SDS011;3275;52.376;9.694;2023-11-19T19:00:50;15.83;;;5.00;;
6483;SDS011;3275;52.376;9.694;2023-11-19T19:03:17;10.80;;;4.27;;
6483;SDS011;3275;52.376;9.694;2023-11-19T19:05:46;9.70;;;4.67;;
6483;SDS011;3275;52.376;9.694;2023-11-19T19:08:13;20.30;;;5.40;;
6483;SDS011;3275;52.376;9.694;2023-11-19T19:10:40;14.50;;;3.63;;
6483;SDS011;3275;52.376;9.694;2023-11-19T19:13:07;15.23;;;5.17;;
6483;SDS011;3275;52.376;9.694;2023-11-19T19:15:33;12.10;;;4.57;;
6483;SDS011;3275;52.376;9.694;2023-11-19T19:18:02;13.30;;;4.07;;
6483;SDS011;3275;52.376;9.694;2023-11-19T19:20:30;19.83;;;4.97;;
6483;SDS011;3275;52.376;9.694;2023-11-19T19:22:57;8.73;;;3.03;;
6483;SDS011;3275;52.376;9.694;2023-11-19T19:25:24;8.30;;;3.47;;
6483;SDS011;3275;52.376;9.694;2023-11-19T19:27:52;16.93;;;4.30;;
6483;SDS011;3275;52.376;9.694;2023-11-19T19:30:20;20.17;;;4.13;;
6483;SDS011;3275;52.376;9.694;2023-11-19T19:32:47;22.90;;;3.97;;
6483;SDS011;3275;52.376;9.694;2023-11-19T19:35:15;9.03;;;3.37;;
6483;SDS011;3275;52.376;9.694;2023-11-19T19:37:41;17.40;;;3.57;;
6483;SDS011;3275;52.376;9.694;2023-11-19T19:40:09;25.90;;;4.50;;
6483;SDS011;3275;52.376;9.694;2023-11-19T19:42:36;15.20;;;4.20;;
6483;SDS011;3275;52.376;9.694;2023-11-19T19:45:04;11.00;;;4.30;;
6483;SDS011;3275;52.376;9.694;2023-11-19T19:47:31;13.80;;;4.27;;
6483;SDS011;3275;52.376;9.694;2023-11-19T19:49:58;13.37;;;4.33;;
6483;SDS011;3275;52.376;9.694;2023-11-19T19:52:27;22.13;;;4.20;;
6483;SDS011;3275;52.376;9.694;2023-11-19T19:54:57;15.23;;;3.60;;
6483;SDS011;3275;52.376;9.694;2023-11-19T19:57:26;12.40;;;3.60;;
6483;SDS011;3275;52.376;9.694;2023-11-19T19:59:53;10.73;;;3.30;;
6483;SDS011;3275;52.376;9.694;2023-11-19T20:02:20;14.20;;;3.97;;
6483;SDS011;3275;52.376;9.694;2023-11-19T20:04:49;12.83;;;3.33;;
6483;SDS011;3275;52.376;9.694;2023-11-19T20:07:16;10.40;;;3.13;;
6483;SDS011;3275;52.376;9.694;2023-11-19T20:09:44;12.93;;;3.50;;
6483;SDS011;3275;52.376;9.694;2023-11-19T20:12:11;12.00;;;4.10;;
6483;SDS011;3275;52.376;9.694;2023-11-19T20:14:39;12.63;;;3.30;;
6483;SDS011;3275;52.376;9.694;2023-11-19T20:17:07;9.93;;;3.20;;
6483;SDS011;3275;52.376;9.694;2023-11-19T20:19:36;10.07;;;4.30;;
6483;SDS011;3275;52.376;9.694;2023-11-19T20:22:03;9.97;;;3.67;;
6483;SDS011;3275;52.376;9.694;2023-11-19T20:24:30;14.60;;;5.43;;
6483;SDS011;3275;52.376;9.694;2023-11-19T20:26:58;10.20;;;3.93;;
6483;SDS011;3275;52.376;9.694;2023-11-19T20:29:25;15.90;;;3.70;;
6483;SDS011;3275;52.376;9.694;2023-11-19T20:31:51;9.43;;;3.50;;
6483;SDS011;3275;52.376;9.694;2023-11-19T20:34:18;10.63;;;4.03;;
6483;SDS011;3275;52.376;9.694;2023-11-19T20:36:45;21.43;;;4.40;;
6483;SDS011;3275;52.376;9.694;2023-11-19T20:39:12;7.33;;;3.20;;
6483;SDS011;3275;52.376;9.694;2023-11-19T20:41:39;15.90;;;3.93;;
6483;SDS011;3275;52.376;9.694;2023-11-19T20:44:08;9.07;;;3.60;;
6483;SDS011;3275;52.376;9.694;2023-11-19T20:46:35;13.47;;;3.63;;
6483;SDS011;3275;52.376;9.694;2023-11-19T20:49:02;13.00;;;3.67;;
6483;SDS011;3275;52.376;9.694;2023-11-19T20:51:29;8.13;;;3.53;;
6483;SDS011;3275;52.376;9.694;2023-11-19T20:53:57;6.97;;;3.33;;
6483;SDS011;3275;52.376;9.694;2023-11-19T20:56:24;7.27;;;2.97;;
6483;SDS011;3275;52.376;9.694;2023-11-19T20:58:51;8.67;;;3.97;;
6483;SDS011;3275;52.376;9.694;2023-11-19T21:01:20;8.03;;;3.80;;
6483;SDS011;3275;52.376;9.694;2023-11-19T21:03:47;8.60;;;4.73;;
6483;SDS011;3275;52.376;9.694;2023-11-19T21:06:13;12.97;;;3.73;;
6483;SDS011;3275;52.376;9.694;2023-11-19T21:08:42;4.83;;;3.37;;
6483;SDS011;3275;52.376;9.694;2023-11-19T21:11:09;11.03;;;4.07;;
6483;SDS011;3275;52.376;9.694;2023-11-19T21:13:36;8.83;;;3.43;;
6483;SDS011;3275;52.376;9.694;2023-11-19T21:16:03;6.00;;;3.23;;
6483;SDS011;3275;52.376;9.694;2023-11-19T21:18:34;7.33;;;3.10;;
6483;SDS011;3275;52.376;9.694;2023-11-19T21:21:02;8.20;;;3.27;;
6483;SDS011;3275;52.376;9.694;2023-11-19T21:23:29;8.77;;;3.80;;
6483;SDS011;3275;52.376;9.694;2023-11-19T21:25:56;10.60;;;3.57;;
6483;SDS011;3275;52.376;9.694;2023-11-19T21:28:24;8.15;;;3.60;;
6483;SDS011;3275;52.376;9.694;2023-11-19T21:30:53;10.07;;;3.70;;
6483;SDS011;3275;52.376;9.694;2023-11-19T21:33:22;11.10;;;3.13;;
6483;SDS011;3275;52.376;9.694;2023-11-19T21:35:51;3.27;;;2.90;;
6483;SDS011;3275;52.376;9.694;2023-11-19T21:38:18;6.83;;;2.90;;
6483;SDS011;3275;52.376;9.694;2023-11-19T21:40:46;6.37;;;3.30;;
6483;SDS011;3275;52.376;9.694;2023-11-19T21:43:14;7.53;;;3.10;;
6483;SDS011;3275;52.376;9.694;2023-11-19T21:45:41;6.30;;;2.93;;
6483;SDS011;3275;52.376;9.694;2023-11-19T21:48:07;5.30;;;2.33;;
6483;SDS011;3275;52.376;9.694;2023-11-19T21:50:34;6.53;;;2.60;;
6483;SDS011;3275;52.376;9.694;2023-11-19T21:53:02;8.63;;;2.80;;
6483;SDS011;3275;52.376;9.694;2023-11-19T21:55:29;7.20;;;2.90;;
6483;SDS011;3275;52.376;9.694;2023-11-19T21:57:56;4.90;;;2.70;;
6483;SDS011;3275;52.376;9.694;2023-11-19T22:00:23;2.93;;;2.00;;
6483;SDS011;3275;52.376;9.694;2023-11-19T22:02:51;5.17;;;1.90;;
6483;SDS011;3275;52.376;9.694;2023-11-19T22:05:18;7.60;;;2.37;;
6483;SDS011;3275;52.376;9.694;2023-11-19T22:07:45;3.10;;;2.37;;
6483;SDS011;3275;52.376;9.694;2023-11-19T22:10:13;1.90;;;1.80;;
6483;SDS011;3275;52.376;9.694;2023-11-19T22:12:41;2.27;;;1.50;;
6483;SDS011;3275;52.376;9.694;2023-11-19T22:15:09;3.40;;;1.23;;
6483;SDS011;3275;52.376;9.694;2023-11-19T22:17:36;1.97;;;1.70;;
6483;SDS011;3275;52.376;9.694;2023-11-19T22:20:04;1.70;;;1.20;;
6483;SDS011;3275;52.376;9.694;2023-11-19T22:22:32;1.63;;;1.27;;
6483;SDS011;3275;52.376;9.694;2023-11-19T22:24:59;1.80;;;1.40;;
6483;SDS011;3275;52.376;9.694;2023-11-19T22:27:28;1.37;;;1.27;;
6483;SDS011;3275;52.376;9.694;2023-11-19T22:29:54;1.20;;;1.10;;
6483;SDS011;3275;52.376;9.694;2023-11-19T22:32:22;2.10;;;1.30;;
6483;SDS011;3275;52.376;9.694;2023-11-19T22:34:51;2.27;;;1.60;;
6483;SDS011;3275;52.376;9.694;2023-11-19T22:37:18;1.50;;;1.10;;
6483;SDS011;3275;52.376;9.694;2023-11-19T22:39:45;2.13;;;1.30;;
6483;SDS011;3275;52.376;9.694;2023-11-19T22:42:12;1.20;;;1.03;;
6483;SDS011;3275;52.376;9.694;2023-11-19T22:44:40;1.80;;;1.20;;
6483;SDS011;3275;52.376;9.694;2023-11-19T22:47:07;2.20;;;0.97;;
6483;SDS011;3275;52.376;9.694;2023-11-19T22:49:34;0.80;;;0.70;;
6483;SDS011;3275;52.376;9.694;2023-11-19T22:52:04;1.23;;;0.90;;
6483;SDS011;3275;52.376;9.694;2023-11-19T22:54:34;2.40;;;1.10;;
6483;SDS011;3275;52.376;9.694;2023-11-19T22:57:00;1.10;;;0.80;;
6483;SDS011;3275;52.376;9.694;2023-11-19T22:59:27;1.00;;;0.60;;
6483;SDS011;3275;52.376;9.694;2023-11-19T23:01:56;1.00;;;0.80;;
6483;SDS011;3275;52.376;9.694;2023-11-19T23:04:23;4.33;;;1.03;;
6483;SDS011;3275;52.376;9.694;2023-11-19T23:06:50;1.53;;;0.70;;
6483;SDS011;3275;52.376;9.694;2023-11-19T23:09:17;1.20;;;0.90;;
6483;SDS011;3275;52.376;9.694;2023-11-19T23:11:44;1.83;;;0.83;;
6483;SDS011;3275;52.376;9.694;2023-11-19T23:14:11;0.80;;;0.70;;
6483;SDS011;3275;52.376;9.694;2023-11-19T23:16:39;0.80;;;0.60;;
6483;SDS011;3275;52.376;9.694;2023-11-19T23:19:07;0.87;;;0.60;;
6483;SDS011;3275;52.376;9.694;2023-11-19T23:21:35;0.97;;;0.60;;
6483;SDS011;3275;52.376;9.694;2023-11-19T23:24:05;0.87;;;0.60;;
6483;SDS011;3275;52.376;9.694;2023-11-19T23:26:32;2.50;;;0.70;;
6483;SDS011;3275;52.376;9.694;2023-11-19T23:28:59;1.07;;;0.73;;
6483;SDS011;3275;52.376;9.694;2023-11-19T23:31:26;0.90;;;0.70;;
6483;SDS011;3275;52.376;9.694;2023-11-19T23:33:52;1.43;;;0.77;;
6483;SDS011;3275;52.376;9.694;2023-11-19T23:36:20;3.27;;;0.70;;
6483;SDS011;3275;52.376;9.694;2023-11-19T23:38:47;0.93;;;0.60;;
6483;SDS011;3275;52.376;9.694;2023-11-19T23:41:14;1.53;;;0.70;;
6483;SDS011;3275;52.376;9.694;2023-11-19T23:43:41;1.47;;;0.67;;
6483;SDS011;3275;52.376;9.694;2023-11-19T23:46:10;1.17;;;0.67;;
6483;SDS011;3275;52.376;9.694;2023-11-19T23:48:38;0.77;;;0.77;;
6483;SDS011;3275;52.376;9.694;2023-11-19T23:51:05;1.13;;;0.70;;
6483;SDS011;3275;52.376;9.694;2023-11-19T23:53:36;2.57;;;0.60;;
6483;SDS011;3275;52.376;9.694;2023-11-19T23:56:04;0.80;;;0.80;;
6483;SDS011;3275;52.376;9.694;2023-11-19T23:58:33;2.80;;;0.90;;
